createdAt,value
2017-08-29T00:00:25.321Z,1019.9
2017-08-29T00:01:24.517Z,1019.9
2017-08-29T00:02:23.573Z,1019.9
2017-08-29T00:03:22.753Z,1019.9
2017-08-29T00:04:22.181Z,1019.9
2017-08-29T00:05:21.495Z,1019.9
2017-08-29T00:06:20.434Z,1019.9
2017-08-29T00:07:19.614Z,1019.9
2017-08-29T00:08:18.937Z,1019.9
2017-08-29T00:09:18.253Z,1019.9
2017-08-29T00:10:17.193Z,1019.9
2017-08-29T00:11:16.753Z,1019.9
2017-08-29T00:12:15.817Z,1019.9
2017-08-29T00:13:15.125Z,1019.9
2017-08-29T00:14:14.320Z,1019.9
2017-08-29T00:15:13.787Z,1019.9
2017-08-29T00:16:12.618Z,1019.9
2017-08-29T00:17:12.198Z,1019.9
2017-08-29T00:18:11.517Z,1019.9
2017-08-29T00:19:10.458Z,1019.9
2017-08-29T00:20:09.758Z,1019.9
2017-08-29T00:22:08.088Z,1019.8
2017-08-29T00:23:07.400Z,1019.8
2017-08-29T00:24:06.593Z,1019.8
2017-08-29T00:25:06.170Z,1019.8
2017-08-29T00:26:04.982Z,1019.8
2017-08-29T00:27:04.544Z,1019.8
2017-08-29T00:28:03.490Z,1019.8
2017-08-29T00:29:02.816Z,1019.8
2017-08-29T00:30:01.891Z,1019.7
2017-08-29T00:31:01.212Z,1019.7
2017-08-29T00:32:00.643Z,1019.7
2017-08-29T00:32:59.589Z,1019.7
2017-08-29T00:33:58.915Z,1019.6
2017-08-29T00:34:58.361Z,1019.7
2017-08-29T00:35:57.313Z,1019.7
2017-08-29T00:36:56.506Z,1019.7
2017-08-29T00:37:55.811Z,1019.7
2017-08-29T00:40:53.534Z,1019.7
2017-08-29T00:41:53.112Z,1019.7
2017-08-29T00:42:52.048Z,1019.7
2017-08-29T00:43:51.499Z,1019.7
2017-08-29T00:44:50.560Z,1019.7
2017-08-29T00:46:48.771Z,1019.7
2017-08-29T00:47:48.336Z,1019.6
2017-08-29T00:48:47.518Z,1019.6
2017-08-29T00:49:46.835Z,1019.6
2017-08-29T00:50:46.164Z,1019.6
2017-08-29T00:51:44.974Z,1019.6
2017-08-29T00:52:44.420Z,1019.6
2017-08-29T00:53:43.851Z,1019.6
2017-08-29T00:54:42.788Z,1019.6
2017-08-29T00:55:42.228Z,1019.6
2017-08-29T00:56:41.315Z,1019.6
2017-08-29T00:57:40.382Z,1019.6
2017-08-29T00:58:39.590Z,1019.6
2017-08-29T00:59:38.779Z,1019.6
2017-08-29T01:00:38.341Z,1019.5
2017-08-29T01:01:37.283Z,1019.5
2017-08-29T01:02:36.483Z,1019.5
2017-08-29T01:03:36.055Z,1019.6
2017-08-29T01:04:35.118Z,1019.5
2017-08-29T01:05:34.306Z,1019.5
2017-08-29T01:06:33.764Z,1019.5
2017-08-29T01:07:32.704Z,1019.5
2017-08-29T01:08:32.031Z,1019.5
2017-08-29T01:09:31.101Z,1019.4
2017-08-29T01:10:30.543Z,1019.5
2017-08-29T01:11:29.477Z,1019.4
2017-08-29T01:12:29.035Z,1019.4
2017-08-29T01:13:27.970Z,1019.3
2017-08-29T01:15:26.407Z,1019.3
2017-08-29T01:16:26.008Z,1019.3
2017-08-29T01:17:25.202Z,1019.3
2017-08-29T01:18:24.150Z,1019.3
2017-08-29T01:19:23.347Z,1019.3
2017-08-29T01:20:22.532Z,1019.3
2017-08-29T01:21:22.098Z,1019.4
2017-08-29T01:22:21.418Z,1019.3
2017-08-29T01:23:20.225Z,1019.3
2017-08-29T01:24:19.668Z,1019.3
2017-08-29T01:25:18.727Z,1019.3
2017-08-29T01:26:17.926Z,1019.3
2017-08-29T01:27:17.252Z,1019.3
2017-08-29T01:28:16.561Z,1019.3
2017-08-29T01:29:15.871Z,1019.3
2017-08-29T01:30:14.705Z,1019.3
2017-08-29T01:31:14.042Z,1019.3
2017-08-29T01:32:13.491Z,1019.3
2017-08-29T01:33:12.424Z,1019.3
2017-08-29T01:34:11.851Z,1019.3
2017-08-29T01:36:10.179Z,1019.3
2017-08-29T01:37:09.747Z,1019.3
2017-08-29T01:38:08.556Z,1019.2
2017-08-29T01:39:08.002Z,1019.2
2017-08-29T01:40:06.951Z,1019.2
2017-08-29T01:41:06.144Z,1019.2
2017-08-29T01:43:04.841Z,1019.2
2017-08-29T01:44:04.159Z,1019.2
2017-08-29T01:45:03.475Z,1019.2
2017-08-29T01:46:02.664Z,1019.2
2017-08-29T01:47:01.490Z,1019.2
2017-08-29T01:48:00.791Z,1019.2
2017-08-29T01:49:00.354Z,1019
2017-08-29T01:49:59.167Z,1019
2017-08-29T01:50:58.732Z,1019
2017-08-29T01:52:56.939Z,1019
2017-08-29T01:53:56.380Z,1019
2017-08-29T01:54:55.310Z,1019
2017-08-29T01:55:54.744Z,1019
2017-08-29T01:56:53.934Z,1019
2017-08-29T01:57:52.989Z,1018.9
2017-08-29T01:58:52.438Z,1019
2017-08-29T01:59:51.763Z,1019
2017-08-29T02:00:50.698Z,1019
2017-08-29T02:01:50.162Z,1019
2017-08-29T02:02:49.096Z,1019
2017-08-29T02:03:48.673Z,1019
2017-08-29T02:04:47.742Z,1019
2017-08-29T02:05:46.805Z,1019
2017-08-29T02:06:45.868Z,1019
2017-08-29T02:08:44.443Z,1019
2017-08-29T02:09:43.880Z,1019
2017-08-29T02:10:43.061Z,1019
2017-08-29T02:11:41.992Z,1018.9
2017-08-29T02:12:41.182Z,1018.9
2017-08-29T02:13:40.503Z,1019
2017-08-29T02:14:39.967Z,1019
2017-08-29T02:15:39.275Z,1018.9
2017-08-29T02:16:38.471Z,1018.9
2017-08-29T02:17:37.667Z,1018.9
2017-08-29T02:18:36.866Z,1019
2017-08-29T02:19:35.803Z,1019
2017-08-29T02:20:35.128Z,1018.9
2017-08-29T02:21:34.578Z,1018.9
2017-08-29T02:22:33.385Z,1018.9
2017-08-29T02:23:32.813Z,1018.9
2017-08-29T02:24:32.146Z,1018.9
2017-08-29T02:25:31.220Z,1018.9
2017-08-29T02:26:30.161Z,1018.9
2017-08-29T02:28:28.753Z,1018.9
2017-08-29T02:29:27.939Z,1018.9
2017-08-29T02:30:27.124Z,1018.9
2017-08-29T02:31:26.569Z,1018.9
2017-08-29T02:32:25.765Z,1018.9
2017-08-29T02:33:24.815Z,1018.9
2017-08-29T02:34:24.125Z,1018.9
2017-08-29T02:35:23.328Z,1018.9
2017-08-29T02:36:22.531Z,1018.9
2017-08-29T02:37:21.604Z,1018.9
2017-08-29T02:38:21.042Z,1019
2017-08-29T02:39:20.348Z,1018.9
2017-08-29T02:40:19.404Z,1018.9
2017-08-29T02:41:18.851Z,1018.9
2017-08-29T02:42:17.677Z,1018.9
2017-08-29T02:43:16.978Z,1018.9
2017-08-29T02:44:16.415Z,1018.9
2017-08-29T02:45:15.353Z,1018.9
2017-08-29T02:46:14.543Z,1018.9
2017-08-29T02:47:13.848Z,1018.9
2017-08-29T02:48:13.037Z,1018.9
2017-08-29T02:49:12.358Z,1018.9
2017-08-29T02:50:11.284Z,1018.9
2017-08-29T02:51:10.598Z,1018.9
2017-08-29T02:52:09.907Z,1018.9
2017-08-29T02:53:08.973Z,1018.9
2017-08-29T02:54:08.404Z,1018.9
2017-08-29T02:55:07.608Z,1018.8
2017-08-29T02:56:06.800Z,1018.8
2017-08-29T02:57:05.864Z,1018.8
2017-08-29T02:58:05.172Z,1018.8
2017-08-29T02:59:04.491Z,1018.8
2017-08-29T03:00:03.428Z,1018.8
2017-08-29T03:01:02.995Z,1018.8
2017-08-29T03:02:02.046Z,1018.8
2017-08-29T03:03:01.348Z,1018.8
2017-08-29T03:04:00.284Z,1018.9
2017-08-29T03:04:59.747Z,1018.8
2017-08-29T03:05:58.682Z,1018.8
2017-08-29T03:06:57.863Z,1018.8
2017-08-29T03:07:57.164Z,1018.8
2017-08-29T03:08:56.347Z,1018.8
2017-08-29T03:09:55.903Z,1018.8
2017-08-29T03:10:54.708Z,1018.8
2017-08-29T03:11:54.005Z,1018.9
2017-08-29T03:13:52.446Z,1018.9
2017-08-29T03:14:51.883Z,1018.9
2017-08-29T03:16:50.073Z,1018.8
2017-08-29T03:17:49.263Z,1018.8
2017-08-29T03:18:48.705Z,1018.8
2017-08-29T03:19:47.905Z,1018.8
2017-08-29T03:20:46.962Z,1018.9
2017-08-29T03:21:46.282Z,1018.8
2017-08-29T03:22:45.603Z,1018.8
2017-08-29T03:23:44.406Z,1018.8
2017-08-29T03:24:43.977Z,1018.8
2017-08-29T03:26:42.422Z,1018.8
2017-08-29T03:27:41.234Z,1018.8
2017-08-29T03:28:40.804Z,1018.8
2017-08-29T03:29:40.002Z,1018.8
2017-08-29T03:30:39.056Z,1018.8
2017-08-29T03:31:38.251Z,1018.8
2017-08-29T03:32:37.707Z,1018.8
2017-08-29T03:33:36.891Z,1018.9
2017-08-29T03:34:35.950Z,1018.9
2017-08-29T03:35:34.886Z,1018.8
2017-08-29T03:36:34.327Z,1018.8
2017-08-29T03:37:33.391Z,1018.8
2017-08-29T03:38:32.579Z,1018.8
2017-08-29T03:39:31.884Z,1018.9
2017-08-29T03:40:31.206Z,1018.8
2017-08-29T03:41:30.391Z,1018.8
2017-08-29T03:42:29.699Z,1018.8
2017-08-29T03:43:28.628Z,1018.8
2017-08-29T03:44:28.078Z,1018.8
2017-08-29T03:45:27.020Z,1018.8
2017-08-29T03:46:26.447Z,1018.8
2017-08-29T03:47:25.508Z,1018.8
2017-08-29T03:48:24.944Z,1018.8
2017-08-29T03:49:24.010Z,1018.9
2017-08-29T03:50:23.325Z,1018.8
2017-08-29T03:51:22.408Z,1018.9
2017-08-29T03:52:21.477Z,1018.9
2017-08-29T03:52:51.975Z,1018.9
2017-08-29T03:53:22.479Z,1018.9
2017-08-29T03:53:52.974Z,1018.9
2017-08-29T03:55:19.088Z,1018.9
2017-08-29T03:56:18.530Z,1018.9
2017-08-29T03:57:17.718Z,1018.9
2017-08-29T03:58:17.028Z,1018.8
2017-08-29T03:59:15.837Z,1018.8
2017-08-29T04:00:15.403Z,1018.9
2017-08-29T04:01:14.214Z,1018.9
2017-08-29T04:02:13.788Z,1018.9
2017-08-29T04:03:12.727Z,1018.9
2017-08-29T04:04:12.027Z,1018.9
2017-08-29T04:05:11.208Z,1018.9
2017-08-29T04:06:10.389Z,1018.9
2017-08-29T04:07:09.694Z,1018.9
2017-08-29T04:08:08.750Z,1018.9
2017-08-29T04:09:07.932Z,1018.9
2017-08-29T04:10:07.109Z,1018.9
2017-08-29T04:11:06.543Z,1018.8
2017-08-29T04:12:05.476Z,1018.8
2017-08-29T04:13:04.795Z,1018.9
2017-08-29T04:14:04.100Z,1018.9
2017-08-29T04:15:03.413Z,1018.9
2017-08-29T04:17:01.744Z,1018.9
2017-08-29T04:18:00.800Z,1018.9
2017-08-29T04:19:00.105Z,1018.9
2017-08-29T04:19:59.156Z,1018.9
2017-08-29T04:20:58.598Z,1018.9
2017-08-29T04:21:57.540Z,1018.9
2017-08-29T04:22:56.981Z,1018.9
2017-08-29T04:23:27.217Z,1018.9
2017-08-29T04:23:57.475Z,1018.9
2017-08-29T04:24:27.967Z,1018.9
2017-08-29T04:25:54.450Z,1018.9
2017-08-29T04:26:54.005Z,1018.9
2017-08-29T04:27:53.057Z,1018.9
2017-08-29T04:28:52.236Z,1018.9
2017-08-29T04:29:51.417Z,1018.9
2017-08-29T04:30:50.732Z,1018.9
2017-08-29T04:31:49.535Z,1018.9
2017-08-29T04:32:48.844Z,1018.9
2017-08-29T04:33:48.410Z,1018.9
2017-08-29T04:34:47.610Z,1018.9
2017-08-29T04:35:46.416Z,1018.9
2017-08-29T04:36:45.874Z,1018.9
2017-08-29T04:37:45.185Z,1018.9
2017-08-29T04:38:44.024Z,1018.9
2017-08-29T04:39:43.208Z,1018.9
2017-08-29T04:40:42.514Z,1018.9
2017-08-29T04:41:41.700Z,1018.9
2017-08-29T04:42:41.009Z,1018.9
2017-08-29T04:43:40.317Z,1018.9
2017-08-29T04:44:10.564Z,1018.9
2017-08-29T04:45:38.441Z,1018.9
2017-08-29T04:46:37.879Z,1018.9
2017-08-29T04:47:37.204Z,1018.9
2017-08-29T04:48:36.263Z,1018.9
2017-08-29T04:49:35.201Z,1018.8
2017-08-29T04:50:34.639Z,1018.9
2017-08-29T04:51:33.819Z,1018.9
2017-08-29T04:52:32.873Z,1018.9
2017-08-29T04:53:32.170Z,1018.8
2017-08-29T04:54:31.616Z,1018.9
2017-08-29T04:55:30.437Z,1018.8
2017-08-29T04:56:29.870Z,1018.8
2017-08-29T04:57:29.189Z,1018.8
2017-08-29T04:58:28.377Z,1018.8
2017-08-29T04:59:27.552Z,1018.8
2017-08-29T05:00:26.728Z,1018.8
2017-08-29T05:01:25.781Z,1018.8
2017-08-29T05:02:25.098Z,1018.8
2017-08-29T05:03:24.041Z,1018.8
2017-08-29T05:04:23.468Z,1018.8
2017-08-29T05:05:22.763Z,1018.8
2017-08-29T05:06:22.077Z,1018.8
2017-08-29T05:07:21.133Z,1018.8
2017-08-29T05:08:20.435Z,1018.7
2017-08-29T05:09:19.746Z,1018.7
2017-08-29T05:10:18.545Z,1018.7
2017-08-29T05:11:17.737Z,1018.7
2017-08-29T05:12:17.287Z,1018.7
2017-08-29T05:13:16.340Z,1018.7
2017-08-29T05:14:15.268Z,1018.6
2017-08-29T05:15:14.705Z,1018.7
2017-08-29T05:16:14.147Z,1018.6
2017-08-29T05:17:13.069Z,1018.6
2017-08-29T05:18:12.122Z,1018.6
2017-08-29T05:19:11.432Z,1018.6
2017-08-29T05:21:10.006Z,1018.6
2017-08-29T05:22:08.947Z,1018.6
2017-08-29T05:23:08.139Z,1018.6
2017-08-29T05:24:07.451Z,1018.6
2017-08-29T05:25:06.647Z,1018.6
2017-08-29T05:26:06.092Z,1018.6
2017-08-29T05:27:05.032Z,1018.6
2017-08-29T05:28:04.350Z,1018.6
2017-08-29T05:29:03.795Z,1018.6
2017-08-29T05:30:02.729Z,1018.6
2017-08-29T05:31:02.158Z,1018.6
2017-08-29T05:32:00.965Z,1018.6
2017-08-29T05:33:59.792Z,1018.6
2017-08-29T05:34:58.849Z,1018.6
2017-08-29T05:35:58.165Z,1018.6
2017-08-29T05:36:57.226Z,1018.6
2017-08-29T05:37:56.657Z,1018.6
2017-08-29T05:38:55.457Z,1018.6
2017-08-29T05:39:54.770Z,1018.6
2017-08-29T05:40:53.948Z,1018.6
2017-08-29T05:41:53.266Z,1018.6
2017-08-29T05:43:51.590Z,1018.6
2017-08-29T05:44:50.890Z,1018.6
2017-08-29T05:45:50.108Z,1018.6
2017-08-29T05:46:49.412Z,1018.6
2017-08-29T05:47:48.588Z,1018.6
2017-08-29T05:48:47.897Z,1018.6
2017-08-29T05:49:46.704Z,1018.6
2017-08-29T05:50:46.267Z,1018.6
2017-08-29T05:51:45.078Z,1018.6
2017-08-29T05:52:44.507Z,1018.6
2017-08-29T05:53:43.699Z,1018.6
2017-08-29T05:54:42.883Z,1018.7
2017-08-29T05:55:42.317Z,1018.7
2017-08-29T05:56:41.122Z,1018.6
2017-08-29T05:57:40.426Z,1018.6
2017-08-29T05:58:10.914Z,1018.6
2017-08-29T05:58:41.157Z,1018.6
2017-08-29T05:59:39.212Z,1018.6
2017-08-29T06:00:38.141Z,1018.6
2017-08-29T06:01:37.199Z,1018.6
2017-08-29T06:02:36.788Z,1018.6
2017-08-29T06:03:35.985Z,1018.6
2017-08-29T06:04:35.052Z,1018.6
2017-08-29T06:05:34.357Z,1018.6
2017-08-29T06:06:33.666Z,1018.6
2017-08-29T06:07:32.889Z,1018.6
2017-08-29T06:08:03.514Z,1018.6
2017-08-29T06:08:34.026Z,1018.6
2017-08-29T06:09:04.403Z,1018.6
2017-08-29T06:09:34.779Z,1018.6
2017-08-29T06:10:05.160Z,1018.6
2017-08-29T06:10:35.448Z,1018.6
2017-08-29T06:11:05.709Z,1018.6
2017-08-29T06:12:28.939Z,1018.6
2017-08-29T06:13:27.874Z,1018.6
2017-08-29T06:14:27.299Z,1018.5
2017-08-29T06:15:26.483Z,1018.5
2017-08-29T06:16:25.542Z,1018.5
2017-08-29T06:17:24.645Z,1018.6
2017-08-29T06:19:23.353Z,1018.5
2017-08-29T06:20:22.669Z,1018.5
2017-08-29T06:21:21.860Z,1018.5
2017-08-29T06:22:20.911Z,1018.5
2017-08-29T06:23:19.963Z,1018.4
2017-08-29T06:24:19.157Z,1018.4
2017-08-29T06:25:18.590Z,1018.4
2017-08-29T06:26:17.517Z,1018.4
2017-08-29T06:27:16.829Z,1018.3
2017-08-29T06:28:16.267Z,1018.3
2017-08-29T06:29:15.199Z,1018.3
2017-08-29T06:30:14.628Z,1018.3
2017-08-29T06:31:13.945Z,1018.3
2017-08-29T06:32:13.001Z,1018.3
2017-08-29T06:33:12.441Z,1018.3
2017-08-29T06:34:11.493Z,1018.3
2017-08-29T06:35:10.794Z,1018.3
2017-08-29T06:36:09.731Z,1018.3
2017-08-29T06:37:08.926Z,1018.3
2017-08-29T06:38:08.358Z,1018.3
2017-08-29T06:39:07.677Z,1018.3
2017-08-29T06:40:06.738Z,1018.3
2017-08-29T06:41:06.047Z,1018.3
2017-08-29T06:42:05.230Z,1018.3
2017-08-29T06:43:04.668Z,1018.3
2017-08-29T06:44:03.613Z,1018.3
2017-08-29T06:45:02.793Z,1018.3
2017-08-29T06:46:02.231Z,1018.3
2017-08-29T06:47:01.671Z,1018.3
2017-08-29T06:48:00.853Z,1018.3
2017-08-29T06:48:59.670Z,1018.3
2017-08-29T06:49:29.935Z,1018.3
2017-08-29T06:50:00.193Z,1018.3
2017-08-29T06:50:58.128Z,1018.3
2017-08-29T06:51:57.570Z,1018.3
2017-08-29T06:52:56.867Z,1018.3
2017-08-29T06:53:56.060Z,1018.3
2017-08-29T06:54:55.112Z,1018.3
2017-08-29T06:55:54.297Z,1018.3
2017-08-29T06:56:53.890Z,1018.3
2017-08-29T06:57:52.945Z,1018.2
2017-08-29T06:58:52.122Z,1018.3
2017-08-29T06:59:51.308Z,1018.2
2017-08-29T07:00:21.545Z,1018.2
2017-08-29T07:00:51.784Z,1018.2
2017-08-29T07:01:22.290Z,1018.2
2017-08-29T07:02:49.285Z,1018.3
2017-08-29T07:03:48.210Z,1018.3
2017-08-29T07:04:47.773Z,1018.2
2017-08-29T07:06:46.093Z,1018.3
2017-08-29T07:07:45.531Z,1018.2
2017-08-29T07:08:44.592Z,1018.2
2017-08-29T07:09:43.645Z,1018.2
2017-08-29T07:10:43.084Z,1018.2
2017-08-29T07:11:42.528Z,1018.2
2017-08-29T07:12:41.714Z,1018.2
2017-08-29T07:13:40.659Z,1018.2
2017-08-29T07:14:39.833Z,1018.2
2017-08-29T07:15:39.286Z,1018.2
2017-08-29T07:16:38.481Z,1018.2
2017-08-29T07:17:37.678Z,1018.2
2017-08-29T07:18:36.983Z,1018.2
2017-08-29T07:19:36.175Z,1018.2
2017-08-29T07:20:35.730Z,1018.1
2017-08-29T07:21:34.672Z,1018.1
2017-08-29T07:22:33.870Z,1018.1
2017-08-29T07:23:33.323Z,1018.1
2017-08-29T07:24:32.390Z,1018.1
2017-08-29T07:25:31.836Z,1018.1
2017-08-29T07:26:31.153Z,1018.1
2017-08-29T07:27:30.334Z,1018.1
2017-08-29T07:28:29.415Z,1018.2
2017-08-29T07:29:28.726Z,1018.1
2017-08-29T07:30:28.192Z,1018.1
2017-08-29T07:31:27.513Z,1018.2
2017-08-29T07:32:26.468Z,1018.1
2017-08-29T07:33:25.924Z,1018.2
2017-08-29T07:34:24.980Z,1018.2
2017-08-29T07:35:24.414Z,1018.1
2017-08-29T07:36:23.466Z,1018.1
2017-08-29T07:37:22.767Z,1018.2
2017-08-29T07:38:22.072Z,1018.1
2017-08-29T07:40:20.392Z,1018.1
2017-08-29T07:42:19.263Z,1018.1
2017-08-29T07:43:18.447Z,1018.1
2017-08-29T07:44:17.897Z,1018.1
2017-08-29T07:45:17.098Z,1018.1
2017-08-29T07:46:16.296Z,1018.1
2017-08-29T07:47:15.364Z,1018.1
2017-08-29T07:48:14.539Z,1018.1
2017-08-29T07:49:13.971Z,1018.1
2017-08-29T07:50:13.530Z,1018.1
2017-08-29T07:51:12.469Z,1018.1
2017-08-29T07:52:11.783Z,1018.1
2017-08-29T07:53:11.108Z,1018.1
2017-08-29T07:54:10.433Z,1018.1
2017-08-29T07:55:09.502Z,1018.2
2017-08-29T07:57:08.208Z,1018.1
2017-08-29T07:58:07.655Z,1018.1
2017-08-29T07:59:06.714Z,1018.2
2017-08-29T08:00:06.032Z,1018.2
2017-08-29T08:01:05.343Z,1018.1
2017-08-29T08:02:04.390Z,1018.2
2017-08-29T08:03:03.696Z,1018.1
2017-08-29T08:04:03.009Z,1018.1
2017-08-29T08:05:02.335Z,1018.1
2017-08-29T08:06:01.780Z,1018.1
2017-08-29T08:07:00.980Z,1018.1
2017-08-29T08:08:00.278Z,1018.1
2017-08-29T08:08:59.331Z,1018.1
2017-08-29T08:09:58.770Z,1018.1
2017-08-29T08:10:58.208Z,1018.1
2017-08-29T08:11:57.392Z,1018.1
2017-08-29T08:12:56.834Z,1018.1
2017-08-29T08:13:56.029Z,1018.1
2017-08-29T08:14:55.463Z,1018.1
2017-08-29T08:15:54.541Z,1018
2017-08-29T08:16:53.980Z,1018.1
2017-08-29T08:17:52.915Z,1018.1
2017-08-29T08:18:52.472Z,1018.1
2017-08-29T08:19:51.781Z,1018.1
2017-08-29T08:20:50.829Z,1018.1
2017-08-29T08:24:48.319Z,1018.1
2017-08-29T08:25:47.624Z,1018
2017-08-29T08:26:18.010Z,1018
2017-08-29T08:26:48.499Z,1018
2017-08-29T08:27:18.877Z,1018
2017-08-29T08:27:49.118Z,1018.1
2017-08-29T08:28:19.510Z,1018.1
2017-08-29T08:30:43.870Z,1018
2017-08-29T08:31:42.925Z,1018.1
2017-08-29T08:32:42.484Z,1018
2017-08-29T08:33:41.547Z,1018
2017-08-29T08:34:40.973Z,1018
2017-08-29T08:35:40.274Z,1018
2017-08-29T08:36:39.459Z,1018
2017-08-29T08:37:38.773Z,1018
2017-08-29T08:38:38.083Z,1018
2017-08-29T08:39:08.570Z,1018
2017-08-29T08:39:38.824Z,1018
2017-08-29T08:40:09.451Z,1018
2017-08-29T08:41:36.065Z,1018
2017-08-29T08:42:35.369Z,1018
2017-08-29T08:43:34.557Z,1018
2017-08-29T08:44:33.864Z,1018
2017-08-29T08:45:33.428Z,1018
2017-08-29T08:46:32.631Z,1018.1
2017-08-29T08:47:32.079Z,1018.1
2017-08-29T08:48:31.523Z,1018.1
2017-08-29T08:49:30.834Z,1018.1
2017-08-29T08:50:29.762Z,1018
2017-08-29T08:51:29.076Z,1018
2017-08-29T08:52:28.387Z,1018
2017-08-29T08:53:27.825Z,1018
2017-08-29T08:54:27.007Z,1018
2017-08-29T08:55:26.694Z,1018
2017-08-29T08:56:25.626Z,1018
2017-08-29T08:57:24.955Z,1018
2017-08-29T08:58:24.400Z,1018
2017-08-29T08:59:23.955Z,1018
2017-08-29T09:00:23.407Z,1017.9
2017-08-29T09:01:22.475Z,1017.9
2017-08-29T09:02:21.781Z,1017.9
2017-08-29T09:03:21.098Z,1017.9
2017-08-29T09:04:20.163Z,1017.9
2017-08-29T09:05:19.839Z,1018
2017-08-29T09:06:19.151Z,1017.9
2017-08-29T09:07:18.467Z,1017.9
2017-08-29T09:08:17.774Z,1017.9
2017-08-29T09:09:16.712Z,1017.9
2017-08-29T09:11:15.540Z,1017.9
2017-08-29T09:12:15.100Z,1017.9
2017-08-29T09:13:14.419Z,1017.9
2017-08-29T09:16:12.434Z,1017.9
2017-08-29T09:18:10.874Z,1017.9
2017-08-29T09:19:10.433Z,1017.8
2017-08-29T09:20:09.379Z,1017.9
2017-08-29T09:20:39.862Z,1017.9
2017-08-29T09:21:10.103Z,1017.9
2017-08-29T09:22:08.031Z,1017.9
2017-08-29T09:23:07.472Z,1017.9
2017-08-29T09:24:06.784Z,1017.8
2017-08-29T09:25:06.477Z,1017.9
2017-08-29T09:26:05.786Z,1017.9
2017-08-29T09:27:04.966Z,1017.9
2017-08-29T09:28:04.025Z,1017.9
2017-08-29T09:29:03.607Z,1017.9
2017-08-29T09:30:02.792Z,1017.8
2017-08-29T09:31:02.118Z,1017.8
2017-08-29T09:32:01.556Z,1017.9
2017-08-29T09:33:00.877Z,1017.8
2017-08-29T09:34:00.325Z,1017.8
2017-08-29T09:34:59.756Z,1017.8
2017-08-29T09:35:59.066Z,1017.8
2017-08-29T09:36:58.494Z,1017.8
2017-08-29T09:37:57.426Z,1017.8
2017-08-29T09:38:56.864Z,1017.8
2017-08-29T09:39:56.306Z,1017.7
2017-08-29T09:40:55.751Z,1017.7
2017-08-29T09:41:55.189Z,1017.7
2017-08-29T09:42:54.233Z,1017.7
2017-08-29T09:43:53.671Z,1017.7
2017-08-29T09:44:52.866Z,1017.7
2017-08-29T09:45:52.429Z,1017.7
2017-08-29T09:46:51.864Z,1017.7
2017-08-29T09:47:51.043Z,1017.6
2017-08-29T09:48:50.478Z,1017.7
2017-08-29T09:49:49.903Z,1017.6
2017-08-29T09:50:49.212Z,1017.6
2017-08-29T09:51:48.522Z,1017.6
2017-08-29T09:52:47.961Z,1017.6
2017-08-29T09:53:47.403Z,1017.6
2017-08-29T09:54:46.345Z,1017.6
2017-08-29T09:55:46.153Z,1017.6
2017-08-29T09:56:45.090Z,1017.6
2017-08-29T09:57:44.401Z,1017.6
2017-08-29T09:58:44.206Z,1017.5
2017-08-29T09:59:43.137Z,1017.6
2017-08-29T10:00:42.950Z,1017.5
2017-08-29T10:01:42.018Z,1017.6
2017-08-29T10:02:41.327Z,1017.5
2017-08-29T10:03:40.634Z,1017.5
2017-08-29T10:04:40.204Z,1017.5
2017-08-29T10:05:39.759Z,1017.5
2017-08-29T10:06:38.959Z,1017.6
2017-08-29T10:07:38.277Z,1017.5
2017-08-29T10:08:37.723Z,1017.5
2017-08-29T10:09:36.912Z,1017.6
2017-08-29T10:10:36.593Z,1017.6
2017-08-29T10:11:35.656Z,1017.6
2017-08-29T10:12:35.086Z,1017.6
2017-08-29T10:13:34.395Z,1017.5
2017-08-29T10:14:33.797Z,1017.5
2017-08-29T10:15:32.984Z,1017.5
2017-08-29T10:16:32.416Z,1017.5
2017-08-29T10:18:31.368Z,1017.5
2017-08-29T10:19:30.931Z,1017.6
2017-08-29T10:20:29.991Z,1017.5
2017-08-29T10:21:29.675Z,1017.5
2017-08-29T10:23:27.997Z,1017.5
2017-08-29T10:24:27.560Z,1017.5
2017-08-29T10:26:26.502Z,1017.4
2017-08-29T10:27:25.565Z,1017.4
2017-08-29T10:29:24.509Z,1017.4
2017-08-29T10:30:23.818Z,1017.4
2017-08-29T10:31:23.125Z,1017.4
2017-08-29T10:32:22.433Z,1017.4
2017-08-29T10:33:22.022Z,1017.4
2017-08-29T10:34:21.349Z,1017.3
2017-08-29T10:35:20.782Z,1017.4
2017-08-29T10:36:19.966Z,1017.3
2017-08-29T10:37:19.524Z,1017.3
2017-08-29T10:38:18.829Z,1017.4
2017-08-29T10:39:18.271Z,1017.4
2017-08-29T10:40:17.830Z,1017.4
2017-08-29T10:41:17.264Z,1017.4
2017-08-29T10:42:16.319Z,1017.3
2017-08-29T10:43:15.898Z,1017.3
2017-08-29T10:44:15.217Z,1017.3
2017-08-29T10:45:14.786Z,1017.3
2017-08-29T10:47:13.494Z,1017.3
2017-08-29T10:48:12.946Z,1017.3
2017-08-29T10:49:12.259Z,1017.3
2017-08-29T10:50:11.825Z,1017.3
2017-08-29T10:51:11.250Z,1017.2
2017-08-29T10:52:10.677Z,1017.2
2017-08-29T10:53:09.868Z,1017.3
2017-08-29T10:54:09.186Z,1017.2
2017-08-29T10:55:08.745Z,1017.3
2017-08-29T10:56:08.182Z,1017.2
2017-08-29T10:57:07.745Z,1017.2
2017-08-29T10:58:06.692Z,1017.2
2017-08-29T10:58:36.954Z,1017.2
2017-08-29T11:00:05.707Z,1017.2
2017-08-29T11:01:05.149Z,1017.2
2017-08-29T11:02:04.467Z,1017.2
2017-08-29T11:03:03.900Z,1017.2
2017-08-29T11:06:02.237Z,1017.2
2017-08-29T11:07:01.678Z,1017.1
2017-08-29T11:08:01.116Z,1017.2
2017-08-29T11:09:00.304Z,1017.1
2017-08-29T11:09:59.991Z,1017.2
2017-08-29T11:10:59.297Z,1017.1
2017-08-29T11:11:58.742Z,1017.1
2017-08-29T11:12:58.060Z,1017.1
2017-08-29T11:13:57.365Z,1017.1
2017-08-29T11:14:57.057Z,1017.1
2017-08-29T11:15:56.497Z,1017.1
2017-08-29T11:16:55.809Z,1017.1
2017-08-29T11:17:55.369Z,1017.1
2017-08-29T11:18:54.818Z,1017.1
2017-08-29T11:19:54.257Z,1017.1
2017-08-29T11:20:53.442Z,1017.1
2017-08-29T11:21:53.129Z,1017.1
2017-08-29T11:22:52.575Z,1017.1
2017-08-29T11:23:51.898Z,1017.1
2017-08-29T11:24:51.084Z,1017.1
2017-08-29T11:25:50.520Z,1017
2017-08-29T11:26:49.958Z,1017
2017-08-29T11:27:49.267Z,1017
2017-08-29T11:28:48.955Z,1017
2017-08-29T11:29:48.268Z,1017
2017-08-29T11:30:47.713Z,1017
2017-08-29T11:31:47.029Z,1017
2017-08-29T11:32:46.592Z,1017
2017-08-29T11:33:46.164Z,1017
2017-08-29T11:34:45.479Z,1017
2017-08-29T11:35:44.909Z,1016.9
2017-08-29T11:36:44.350Z,1016.9
2017-08-29T11:37:43.934Z,1016.9
2017-08-29T11:38:43.120Z,1016.9
2017-08-29T11:39:42.677Z,1016.9
2017-08-29T11:40:41.989Z,1016.9
2017-08-29T11:41:41.426Z,1016.8
2017-08-29T11:42:40.866Z,1016.8
2017-08-29T11:43:40.300Z,1016.9
2017-08-29T11:44:40.118Z,1016.9
2017-08-29T11:45:39.555Z,1016.9
2017-08-29T11:46:38.949Z,1016.9
2017-08-29T11:47:38.508Z,1016.9
2017-08-29T11:48:37.832Z,1016.8
2017-08-29T11:49:37.135Z,1016.8
2017-08-29T11:50:36.705Z,1016.8
2017-08-29T11:52:35.645Z,1016.7
2017-08-29T11:53:35.207Z,1016.7
2017-08-29T11:54:34.518Z,1016.7
2017-08-29T11:55:33.845Z,1016.7
2017-08-29T11:56:33.538Z,1016.7
2017-08-29T11:57:33.010Z,1016.7
2017-08-29T11:58:03.253Z,1016.7
2017-08-29T11:58:33.630Z,1016.7
2017-08-29T11:59:31.929Z,1016.7
2017-08-29T12:00:31.238Z,1016.7
2017-08-29T12:01:30.804Z,1016.6
2017-08-29T12:02:30.356Z,1016.6
2017-08-29T12:03:29.428Z,1016.6
2017-08-29T12:04:29.123Z,1016.6
2017-08-29T12:05:28.437Z,1016.6
2017-08-29T12:06:27.993Z,1016.6
2017-08-29T12:07:27.555Z,1016.6
2017-08-29T12:08:26.874Z,1016.6
2017-08-29T12:08:57.107Z,1016.6
2017-08-29T12:09:27.600Z,1016.6
2017-08-29T12:09:58.228Z,1016.6
2017-08-29T12:12:24.612Z,1016.5
2017-08-29T12:13:24.176Z,1016.5
2017-08-29T12:14:23.614Z,1016.5
2017-08-29T12:15:23.065Z,1016.5
2017-08-29T12:17:22.275Z,1016.5
2017-08-29T12:18:21.837Z,1016.5
2017-08-29T12:19:21.284Z,1016.4
2017-08-29T12:20:20.588Z,1016.4
2017-08-29T12:22:19.806Z,1016.4
2017-08-29T12:23:19.240Z,1016.4
2017-08-29T12:25:17.930Z,1016.4
2017-08-29T12:26:17.364Z,1016.4
2017-08-29T12:27:16.946Z,1016.3
2017-08-29T12:28:16.773Z,1016.3
2017-08-29T12:30:15.601Z,1016.3
2017-08-29T12:31:15.176Z,1016.3
2017-08-29T12:32:14.740Z,1016.3
2017-08-29T12:33:14.182Z,1016.3
2017-08-29T12:34:13.770Z,1016.3
2017-08-29T12:35:12.954Z,1016.3
2017-08-29T12:36:12.767Z,1016.3
2017-08-29T12:37:11.951Z,1016.3
2017-08-29T12:40:10.665Z,1016.2
2017-08-29T12:41:10.097Z,1016.2
2017-08-29T12:42:09.785Z,1016.2
2017-08-29T12:43:09.064Z,1016.2
2017-08-29T12:44:08.749Z,1016.2
2017-08-29T12:45:08.197Z,1016.2
2017-08-29T12:46:07.503Z,1016.2
2017-08-29T12:47:06.945Z,1016.1
2017-08-29T12:48:06.393Z,1016.2
2017-08-29T12:49:06.212Z,1016.1
2017-08-29T12:50:05.528Z,1016.2
2017-08-29T12:52:04.745Z,1016.2
2017-08-29T12:53:04.189Z,1016.1
2017-08-29T12:54:03.748Z,1016.2
2017-08-29T12:55:03.172Z,1016.1